Terminal Aerodrome Forecast
Issued by NWS Cleveland, OH

Home | Current Version | Previous Version | Graphics & Text | Print | Product List | Glossary On
Versions: 1 2 3 4 5 6 7 8 9 10 11 12 13 14 15 16 17
008
FTUS41 KCLE 242336
TAFMFD
TAF
KMFD 242336Z 2500/2524 20020G30KT P6SM BKN070
     FM250200 19014KT P6SM VCTS SCT045CB BKN150
      TEMPO 2503/2507 26020G40KT 2SM TSRA BKN020CB
     FM250700 23010G20KT P6SM VCSH BKN025
     FM251200 22015G25KT P6SM OVC020=

USA.gov is the U.S. government's official web portal to all federal, state and local government web resources and services.